createdAt,value
2024-02-13T00:01:41.938Z,17.95
2024-02-13T00:05:44.951Z,17.58
2024-02-13T00:09:47.193Z,20.08
2024-02-13T00:13:49.334Z,18.60
2024-02-13T00:17:52.719Z,14.93
2024-02-13T00:21:54.875Z,13.02
2024-02-13T00:25:56.966Z,26.42
2024-02-13T00:29:59.031Z,22.40
2024-02-13T00:34:00.783Z,23.40
2024-02-13T00:38:02.820Z,16.50
2024-02-13T00:42:06.532Z,12.15
2024-02-13T00:46:10.674Z,12.52
2024-02-13T00:50:15.869Z,14.10
2024-02-13T00:54:18.229Z,12.73
2024-02-13T00:58:20.606Z,11.50
2024-02-13T01:02:23.856Z,11.98
2024-02-13T01:06:25.985Z,14.10
2024-02-13T01:10:28.032Z,15.43
2024-02-13T01:14:30.070Z,16.33
2024-02-13T01:18:33.828Z,16.98
2024-02-13T01:22:36.544Z,15.10
2024-02-13T01:26:39.119Z,17.70
2024-02-13T01:30:41.353Z,23.95
2024-02-13T01:34:43.835Z,17.10
2024-02-13T01:38:46.092Z,20.05
2024-02-13T01:42:50.611Z,16.92
2024-02-13T01:46:53.722Z,19.95
2024-02-13T01:51:01.856Z,27.75
2024-02-13T01:55:04.268Z,17.38
2024-02-13T01:59:06.996Z,16.20
2024-02-13T02:03:15.980Z,20.23
2024-02-13T02:07:19.010Z,20.77
2024-02-13T02:11:21.277Z,14.98
2024-02-13T02:15:23.303Z,25.00
2024-02-13T02:19:25.466Z,18.35
2024-02-13T02:23:28.037Z,17.92
2024-02-13T02:27:30.289Z,28.45
2024-02-13T02:31:32.626Z,19.75
2024-02-13T02:35:35.026Z,18.33
2024-02-13T02:39:37.110Z,16.52
2024-02-13T02:43:39.360Z,26.58
2024-02-13T02:47:41.502Z,12.98
2024-02-13T02:51:44.921Z,9.68
2024-02-13T02:55:46.996Z,11.85
2024-02-13T02:59:49.271Z,8.65
2024-02-13T03:03:51.634Z,12.13
2024-02-13T03:07:53.842Z,10.02
2024-02-13T03:11:56.732Z,7.15
2024-02-13T03:15:59.016Z,15.40
2024-02-13T03:20:02.177Z,11.73
2024-02-13T03:24:06.356Z,8.90
2024-02-13T03:28:08.824Z,11.90
2024-02-13T03:32:11.047Z,17.42
2024-02-13T03:36:17.932Z,9.93
2024-02-13T03:40:20.195Z,8.80
2024-02-13T03:44:23.884Z,10.50
2024-02-13T03:48:26.281Z,7.63
2024-02-13T03:52:28.526Z,9.68
2024-02-13T03:56:30.719Z,7.03
2024-02-13T04:00:34.032Z,7.45
2024-02-13T04:04:36.586Z,6.18
2024-02-13T04:08:40.330Z,5.90
2024-02-13T04:12:42.447Z,5.30
2024-02-13T04:16:45.471Z,5.22
2024-02-13T04:20:47.698Z,5.78
2024-02-13T04:24:50.305Z,5.05
2024-02-13T04:28:52.391Z,5.53
2024-02-13T04:32:54.674Z,4.65
2024-02-13T04:36:56.787Z,4.85
2024-02-13T04:40:58.973Z,5.10
2024-02-13T04:45:01.825Z,5.10
2024-02-13T04:49:04.065Z,4.88
2024-02-13T04:53:06.358Z,4.60
2024-02-13T04:57:08.381Z,4.70
2024-02-13T05:01:13.330Z,5.70
2024-02-13T05:05:34.605Z,3.25
2024-02-13T05:09:36.968Z,4.25
2024-02-13T05:13:40.066Z,4.43
2024-02-13T05:17:42.733Z,4.55
2024-02-13T05:21:44.967Z,3.85
2024-02-13T05:25:46.886Z,4.35
2024-02-13T05:29:49.448Z,4.28
2024-02-13T05:33:53.402Z,4.88
2024-02-13T05:37:55.747Z,5.57
2024-02-13T05:41:58.869Z,4.60
2024-02-13T05:46:01.140Z,4.82
2024-02-13T05:50:05.112Z,5.00
2024-02-13T05:54:07.583Z,7.20
2024-02-13T05:58:10.096Z,14.30
2024-02-13T06:02:12.152Z,6.10
2024-02-13T06:06:15.943Z,4.72
2024-02-13T06:10:18.265Z,6.85
2024-02-13T06:14:20.497Z,5.57
2024-02-13T06:18:24.175Z,6.15
2024-02-13T06:22:26.499Z,5.85
2024-02-13T06:26:28.802Z,4.40
2024-02-13T06:30:33.182Z,5.50
2024-02-13T06:34:37.670Z,5.57
2024-02-13T06:38:39.914Z,6.20
2024-02-13T06:42:42.200Z,5.85
2024-02-13T06:46:44.354Z,7.22
2024-02-13T06:50:46.504Z,8.27
2024-02-13T06:54:50.788Z,8.20
2024-02-13T06:58:53.396Z,8.35
2024-02-13T07:02:56.183Z,8.30
2024-02-13T07:07:08.762Z,7.78
2024-02-13T07:11:20.846Z,6.63
2024-02-13T07:15:23.303Z,9.88
2024-02-13T07:19:26.784Z,7.40
2024-02-13T07:23:29.196Z,9.30
2024-02-13T07:27:31.704Z,7.57
2024-02-13T07:31:36.743Z,9.80
2024-02-13T07:35:39.096Z,7.07
2024-02-13T07:39:41.572Z,8.57
2024-02-13T07:43:43.853Z,8.68
2024-02-13T07:47:46.133Z,7.32
2024-02-13T07:51:49.900Z,9.02
2024-02-13T07:55:52.086Z,10.13
2024-02-13T07:59:57.304Z,10.13
2024-02-13T08:03:59.975Z,9.85
2024-02-13T08:08:03.772Z,8.55
2024-02-13T08:12:07.970Z,8.20
2024-02-13T08:16:12.476Z,7.88
2024-02-13T08:20:14.805Z,9.20
2024-02-13T08:24:19.349Z,11.00
2024-02-13T08:28:23.711Z,9.73
2024-02-13T08:32:28.157Z,12.18
2024-02-13T08:36:30.907Z,10.70
2024-02-13T08:40:32.981Z,10.25
2024-02-13T08:44:36.169Z,10.70
2024-02-13T08:48:38.783Z,12.23
2024-02-13T08:52:41.066Z,11.52
2024-02-13T08:56:44.025Z,13.25
2024-02-13T09:00:46.376Z,19.05
2024-02-13T09:04:51.417Z,12.55
2024-02-13T09:08:53.357Z,13.15
2024-02-13T09:12:55.692Z,16.60
2024-02-13T09:17:00.458Z,15.40
2024-02-13T09:21:02.949Z,15.55
2024-02-13T09:25:05.823Z,14.02
2024-02-13T09:29:07.925Z,13.35
2024-02-13T09:33:11.078Z,15.88
2024-02-13T09:37:14.263Z,15.35
2024-02-13T09:41:16.484Z,12.95
2024-02-13T09:45:18.995Z,13.68
2024-02-13T09:49:23.218Z,14.20
2024-02-13T09:53:30.264Z,11.40
2024-02-13T09:57:32.566Z,13.52
2024-02-13T10:01:35.470Z,11.30
2024-02-13T10:05:37.780Z,11.18
2024-02-13T10:09:39.912Z,13.40
2024-02-13T10:13:47.039Z,14.68
2024-02-13T10:17:52.475Z,13.95
2024-02-13T10:22:06.713Z,15.20
2024-02-13T10:26:09.595Z,14.25
2024-02-13T10:30:21.337Z,12.32
2024-02-13T10:38:29.118Z,12.20
2024-02-13T10:46:41.955Z,15.57
2024-02-13T10:50:44.851Z,13.07
2024-02-13T10:54:49.411Z,14.80
2024-02-13T10:58:51.682Z,12.80
2024-02-13T11:02:55.754Z,14.65
2024-02-13T11:06:58.219Z,12.65
2024-02-13T11:11:08.180Z,12.13
2024-02-13T11:15:15.260Z,14.27
2024-02-13T11:19:23.791Z,13.98
2024-02-13T11:23:29.919Z,14.40
2024-02-13T11:27:32.765Z,13.23
2024-02-13T11:31:35.306Z,13.57
2024-02-13T11:35:58.073Z,10.57
2024-02-13T11:40:00.536Z,11.75
2024-02-13T11:44:12.397Z,12.93
2024-02-13T11:48:18.353Z,13.30
2024-02-13T11:52:22.236Z,7.50
2024-02-13T11:56:24.463Z,7.47
2024-02-13T12:00:27.421Z,8.27
2024-02-13T12:04:30.923Z,10.63
2024-02-13T12:08:41.906Z,11.60
2024-02-13T12:12:44.236Z,12.40
2024-02-13T12:16:46.470Z,12.77
2024-02-13T12:20:51.121Z,12.77
2024-02-13T12:24:53.361Z,11.20
2024-02-13T12:28:58.809Z,14.25
2024-02-13T12:33:08.313Z,11.85
2024-02-13T12:37:16.398Z,14.05
2024-02-13T12:41:19.272Z,12.43
2024-02-13T12:45:22.506Z,13.80
2024-02-13T12:49:25.078Z,14.63
2024-02-13T12:53:28.113Z,15.02
2024-02-13T12:57:32.101Z,12.75
2024-02-13T13:01:39.177Z,14.05
2024-02-13T13:05:44.893Z,14.15
2024-02-13T13:09:48.044Z,11.23
2024-02-13T13:13:50.925Z,10.02
2024-02-13T13:17:55.381Z,12.68
2024-02-13T13:21:59.208Z,11.02
2024-02-13T13:26:02.405Z,11.77
2024-02-13T13:30:05.747Z,10.10
2024-02-13T13:34:10.547Z,11.25
2024-02-13T13:38:21.223Z,10.48
2024-02-13T13:42:23.404Z,10.68
2024-02-13T13:46:26.883Z,8.90
2024-02-13T13:50:29.080Z,9.25
2024-02-13T13:54:31.193Z,10.70
2024-02-13T13:58:33.605Z,9.85
2024-02-13T14:02:39.600Z,9.95
2024-02-13T14:06:41.852Z,11.05
2024-02-13T14:10:46.183Z,14.88
2024-02-13T14:14:48.518Z,13.82
2024-02-13T14:18:50.799Z,13.95
2024-02-13T14:22:55.316Z,12.88
2024-02-13T14:26:57.648Z,12.80
2024-02-13T14:30:59.937Z,14.73
2024-02-13T14:35:03.071Z,12.32
2024-02-13T14:39:05.390Z,9.48
2024-02-13T14:43:08.658Z,9.63
2024-02-13T14:47:11.088Z,13.00
2024-02-13T14:51:19.405Z,9.75
2024-02-13T14:55:21.928Z,11.65
2024-02-13T14:59:26.539Z,9.70
2024-02-13T15:03:29.035Z,10.13
2024-02-13T15:07:31.495Z,7.97
2024-02-13T15:11:34.535Z,8.45
2024-02-13T15:15:37.344Z,9.95
2024-02-13T15:19:41.543Z,10.30
2024-02-13T15:23:45.006Z,8.82
2024-02-13T15:27:47.196Z,8.48
2024-02-13T15:31:49.686Z,9.68
2024-02-13T15:36:06.095Z,7.95
2024-02-13T15:40:27.962Z,6.35
2024-02-13T15:44:48.769Z,9.73
2024-02-13T15:48:53.199Z,8.82
2024-02-13T15:52:56.472Z,11.15
2024-02-13T15:56:59.189Z,9.95
2024-02-13T16:01:02.776Z,9.95
2024-02-13T16:05:05.466Z,9.70
2024-02-13T16:09:07.651Z,6.32
2024-02-13T16:13:11.480Z,8.27
2024-02-13T16:17:13.585Z,6.50
2024-02-13T16:21:15.819Z,5.82
2024-02-13T16:25:19.801Z,7.85
2024-02-13T16:29:24.528Z,6.80
2024-02-13T16:33:26.896Z,9.48
2024-02-13T16:37:32.311Z,14.10
2024-02-13T16:41:34.476Z,6.28
2024-02-13T16:45:36.995Z,6.97
2024-02-13T16:49:39.222Z,6.93
2024-02-13T16:53:42.388Z,6.85
2024-02-13T16:57:46.199Z,7.50
2024-02-13T17:01:48.258Z,8.90
2024-02-13T17:05:51.625Z,8.80
2024-02-13T17:09:53.743Z,8.45
2024-02-13T17:13:55.907Z,8.90
2024-02-13T17:17:58.669Z,13.73
2024-02-13T17:22:00.850Z,10.15
2024-02-13T17:26:03.157Z,11.52
2024-02-13T17:30:08.842Z,17.35
2024-02-13T17:34:11.225Z,13.48
2024-02-13T17:38:13.839Z,9.63
2024-02-13T17:42:16.825Z,8.65
2024-02-13T17:46:18.971Z,11.65
2024-02-13T17:50:21.550Z,10.40
2024-02-13T17:54:29.211Z,9.75
2024-02-13T17:58:35.312Z,9.48
2024-02-13T18:02:40.654Z,11.48
2024-02-13T18:06:43.723Z,14.75
2024-02-13T18:10:45.872Z,19.25
2024-02-13T18:14:48.141Z,24.42
2024-02-13T18:18:50.963Z,21.65
2024-02-13T18:22:55.250Z,16.38
2024-02-13T18:26:58.036Z,14.73
2024-02-13T18:31:00.312Z,14.80
2024-02-13T18:35:02.599Z,14.98
2024-02-13T18:39:04.767Z,14.82
2024-02-13T18:43:06.909Z,10.23
2024-02-13T18:47:11.272Z,12.27
2024-02-13T18:51:15.731Z,10.38
2024-02-13T18:55:18.631Z,11.38
2024-02-13T18:59:21.172Z,12.38
2024-02-13T19:03:23.622Z,14.57
2024-02-13T19:07:25.739Z,18.30
2024-02-13T19:11:28.234Z,10.95
2024-02-13T19:15:30.421Z,18.83
2024-02-13T19:19:33.604Z,35.72
2024-02-13T19:23:35.744Z,13.77
2024-02-13T19:27:38.558Z,49.80
2024-02-13T19:31:42.411Z,14.93
2024-02-13T19:35:46.195Z,15.98
2024-02-13T19:39:48.768Z,12.32
2024-02-13T19:43:51.780Z,11.43
2024-02-13T19:47:54.135Z,11.18
2024-02-13T19:51:57.143Z,8.45
2024-02-13T19:55:59.509Z,8.65
2024-02-13T20:00:04.145Z,11.10
2024-02-13T20:04:07.384Z,10.38
2024-02-13T20:08:10.848Z,8.65
2024-02-13T20:12:13.036Z,9.80
2024-02-13T20:16:15.133Z,11.63
2024-02-13T20:20:17.989Z,9.02
2024-02-13T20:24:20.187Z,13.88
2024-02-13T20:28:22.296Z,8.48
2024-02-13T20:32:25.680Z,10.75
2024-02-13T20:36:27.860Z,13.32
2024-02-13T20:40:30.617Z,9.95
2024-02-13T20:44:32.814Z,14.40
2024-02-13T20:48:35.136Z,12.95
2024-02-13T20:52:38.146Z,10.95
2024-02-13T20:56:40.771Z,12.68
2024-02-13T21:00:44.821Z,17.65
2024-02-13T21:04:48.722Z,24.00
2024-02-13T21:08:52.572Z,12.27
2024-02-13T21:12:58.178Z,20.83
2024-02-13T21:17:00.278Z,12.93
2024-02-13T21:21:21.448Z,13.50
2024-02-13T21:25:24.670Z,15.35
2024-02-13T21:29:27.692Z,14.38
2024-02-13T21:33:30.061Z,14.10
2024-02-13T21:37:33.594Z,18.20
2024-02-13T21:41:36.608Z,19.73
2024-02-13T21:45:38.944Z,19.77
2024-02-13T21:49:41.213Z,16.80
2024-02-13T21:53:48.581Z,13.82
2024-02-13T21:57:50.740Z,15.10
2024-02-13T22:01:52.873Z,13.32
2024-02-13T22:05:55.278Z,15.95
2024-02-13T22:09:57.733Z,16.88
2024-02-13T22:14:01.905Z,13.98
2024-02-13T22:18:04.192Z,17.63
2024-02-13T22:22:06.456Z,13.70
2024-02-13T22:26:08.569Z,14.80
2024-02-13T22:30:13.741Z,15.30
2024-02-13T22:34:16.191Z,15.73
2024-02-13T22:38:18.469Z,17.23
2024-02-13T22:42:20.584Z,13.27
2024-02-13T22:46:26.094Z,14.48
2024-02-13T22:50:29.703Z,12.93
2024-02-13T22:54:32.621Z,14.80
2024-02-13T22:58:34.739Z,15.10
2024-02-13T23:02:37.235Z,18.73
2024-02-13T23:06:43.009Z,16.80
2024-02-13T23:10:45.220Z,18.05
2024-02-13T23:14:47.379Z,14.63
2024-02-13T23:18:50.316Z,13.68
2024-02-13T23:22:52.669Z,15.10
2024-02-13T23:26:54.871Z,20.90
2024-02-13T23:30:56.967Z,24.55
2024-02-13T23:34:59.104Z,17.10
2024-02-13T23:39:01.935Z,15.88
2024-02-13T23:43:06.916Z,15.40
2024-02-13T23:47:09.144Z,15.40
2024-02-13T23:51:11.457Z,14.90
2024-02-13T23:55:14.627Z,13.23
2024-02-13T23:59:16.704Z,13.63
